Nicholls, Georgia
Current Conditions -  °F | °C
As of 12:53 AM on Friday 28 Nov 2014 (Local Time) from KAMG Reporting Station
Clear Clear  
Wind Chill: 33°   Ceiling: Unl
Heat Index: 39°   Visibility: 10mi
Dew Point: 29°   Wind: 8mph
Humidity: 67%   Direction: 330°NNW
Pressure: 30.35"   Gusts: NA
Location:  31.52°N, 82.63°W
Report Text: KAMG 280553Z AUTO 33007KT 10SM CLR 04/M02 A3035 RMK AO2 SLP278 T00391017 10083 20039 50002
Loading
Personal Weather Stations






























Interactive Weather Map New forecast layout! Learn more

10-Day Weather Forecast

Advertisements
Track Severe Weather on mobile